sensor_id;sensor_type;location;lat;lon;timestamp;temperature;humidity
4602;DHT22;2313;48.552;9.370;2023-03-07T00:00:56;3.10;99.90
4602;DHT22;2313;48.552;9.370;2023-03-07T00:03:22;3.10;99.90
4602;DHT22;2313;48.552;9.370;2023-03-07T00:05:47;3.10;99.90
4602;DHT22;2313;48.552;9.370;2023-03-07T00:08:13;3.10;99.90
4602;DHT22;2313;48.552;9.370;2023-03-07T00:10:39;3.10;99.90
4602;DHT22;2313;48.552;9.370;2023-03-07T00:13:04;3.00;99.90
4602;DHT22;2313;48.552;9.370;2023-03-07T00:15:30;3.10;99.90
4602;DHT22;2313;48.552;9.370;2023-03-07T00:17:56;3.00;99.90
4602;DHT22;2313;48.552;9.370;2023-03-07T00:20:22;3.00;99.90
4602;DHT22;2313;48.552;9.370;2023-03-07T00:22:48;3.00;99.90
4602;DHT22;2313;48.552;9.370;2023-03-07T00:25:14;3.00;99.90
4602;DHT22;2313;48.552;9.370;2023-03-07T00:27:40;3.00;99.90
4602;DHT22;2313;48.552;9.370;2023-03-07T00:30:06;3.00;99.90
4602;DHT22;2313;48.552;9.370;2023-03-07T00:32:34;3.00;99.90
4602;DHT22;2313;48.552;9.370;2023-03-07T00:35:00;3.00;99.90
4602;DHT22;2313;48.552;9.370;2023-03-07T00:37:26;3.00;99.90
4602;DHT22;2313;48.552;9.370;2023-03-07T00:39:51;3.00;99.90
4602;DHT22;2313;48.552;9.370;2023-03-07T00:42:17;2.90;99.90
4602;DHT22;2313;48.552;9.370;2023-03-07T00:44:42;3.00;99.90
4602;DHT22;2313;48.552;9.370;2023-03-07T00:47:08;3.00;99.90
4602;DHT22;2313;48.552;9.370;2023-03-07T00:49:34;3.00;99.90
4602;DHT22;2313;48.552;9.370;2023-03-07T00:51:59;3.00;99.90
4602;DHT22;2313;48.552;9.370;2023-03-07T00:54:25;2.90;99.90
4602;DHT22;2313;48.552;9.370;2023-03-07T00:56:51;3.00;99.90
4602;DHT22;2313;48.552;9.370;2023-03-07T00:59:16;3.00;99.90
4602;DHT22;2313;48.552;9.370;2023-03-07T01:01:42;3.00;99.90
4602;DHT22;2313;48.552;9.370;2023-03-07T01:04:08;3.00;99.90
4602;DHT22;2313;48.552;9.370;2023-03-07T01:06:34;3.00;99.90
4602;DHT22;2313;48.552;9.370;2023-03-07T01:09:02;3.10;99.90
4602;DHT22;2313;48.552;9.370;2023-03-07T01:11:30;3.00;99.90
4602;DHT22;2313;48.552;9.370;2023-03-07T01:13:57;3.10;99.90
4602;DHT22;2313;48.552;9.370;2023-03-07T01:16:32;3.10;99.90
4602;DHT22;2313;48.552;9.370;2023-03-07T01:19:00;3.10;99.90
4602;DHT22;2313;48.552;9.370;2023-03-07T01:21:28;3.10;99.90
4602;DHT22;2313;48.552;9.370;2023-03-07T01:23:54;3.10;99.90
4602;DHT22;2313;48.552;9.370;2023-03-07T01:26:22;3.10;99.90
4602;DHT22;2313;48.552;9.370;2023-03-07T01:28:53;3.10;99.90
4602;DHT22;2313;48.552;9.370;2023-03-07T01:31:19;3.10;99.90
4602;DHT22;2313;48.552;9.370;2023-03-07T01:33:47;3.10;99.90
4602;DHT22;2313;48.552;9.370;2023-03-07T01:36:19;3.00;99.90
4602;DHT22;2313;48.552;9.370;2023-03-07T01:38:49;3.00;99.90
4602;DHT22;2313;48.552;9.370;2023-03-07T01:41:15;3.00;99.90
4602;DHT22;2313;48.552;9.370;2023-03-07T01:43:41;2.90;99.90
4602;DHT22;2313;48.552;9.370;2023-03-07T01:46:23;3.00;99.90
4602;DHT22;2313;48.552;9.370;2023-03-07T01:49:02;2.90;99.90
4602;DHT22;2313;48.552;9.370;2023-03-07T01:51:33;3.00;99.90
4602;DHT22;2313;48.552;9.370;2023-03-07T01:54:00;3.00;99.90
4602;DHT22;2313;48.552;9.370;2023-03-07T01:56:26;2.90;99.90
4602;DHT22;2313;48.552;9.370;2023-03-07T01:58:52;2.90;99.90
4602;DHT22;2313;48.552;9.370;2023-03-07T02:01:18;2.90;99.90
4602;DHT22;2313;48.552;9.370;2023-03-07T02:07:02;2.90;99.90
4602;DHT22;2313;48.552;9.370;2023-03-07T02:09:29;2.80;99.90
4602;DHT22;2313;48.552;9.370;2023-03-07T02:11:56;2.80;99.90
4602;DHT22;2313;48.552;9.370;2023-03-07T02:14:24;2.70;99.90
4602;DHT22;2313;48.552;9.370;2023-03-07T02:16:51;2.80;99.90
4602;DHT22;2313;48.552;9.370;2023-03-07T02:19:35;2.90;99.90
4602;DHT22;2313;48.552;9.370;2023-03-07T02:22:10;2.90;99.90
4602;DHT22;2313;48.552;9.370;2023-03-07T02:27:28;3.00;99.90
4602;DHT22;2313;48.552;9.370;2023-03-07T02:29:54;3.00;99.90
4602;DHT22;2313;48.552;9.370;2023-03-07T02:32:20;3.00;99.90
4602;DHT22;2313;48.552;9.370;2023-03-07T02:34:46;3.00;99.90
4602;DHT22;2313;48.552;9.370;2023-03-07T02:39:41;3.00;99.90
4602;DHT22;2313;48.552;9.370;2023-03-07T02:42:10;3.10;99.90
4602;DHT22;2313;48.552;9.370;2023-03-07T02:44:36;3.00;99.90
4602;DHT22;2313;48.552;9.370;2023-03-07T02:47:02;3.00;99.90
4602;DHT22;2313;48.552;9.370;2023-03-07T02:49:29;3.10;99.90
4602;DHT22;2313;48.552;9.370;2023-03-07T02:51:55;3.10;99.90
4602;DHT22;2313;48.552;9.370;2023-03-07T02:54:25;3.10;99.90
4602;DHT22;2313;48.552;9.370;2023-03-07T02:56:51;3.00;99.90
4602;DHT22;2313;48.552;9.370;2023-03-07T02:59:17;3.10;99.90
4602;DHT22;2313;48.552;9.370;2023-03-07T03:01:42;3.10;99.90
4602;DHT22;2313;48.552;9.370;2023-03-07T03:04:08;3.00;99.70
4602;DHT22;2313;48.552;9.370;2023-03-07T03:06:34;3.00;99.80
4602;DHT22;2313;48.552;9.370;2023-03-07T03:08:59;3.00;99.80
4602;DHT22;2313;48.552;9.370;2023-03-07T03:11:25;3.00;99.90
4602;DHT22;2313;48.552;9.370;2023-03-07T03:13:51;3.00;99.80
4602;DHT22;2313;48.552;9.370;2023-03-07T03:16:16;3.00;99.80
4602;DHT22;2313;48.552;9.370;2023-03-07T03:18:42;3.10;99.90
4602;DHT22;2313;48.552;9.370;2023-03-07T03:21:11;3.00;99.30
4602;DHT22;2313;48.552;9.370;2023-03-07T03:23:37;3.00;99.00
4602;DHT22;2313;48.552;9.370;2023-03-07T03:26:05;3.00;99.50
4602;DHT22;2313;48.552;9.370;2023-03-07T03:28:33;2.90;99.40
4602;DHT22;2313;48.552;9.370;2023-03-07T03:31:01;2.90;99.50
4602;DHT22;2313;48.552;9.370;2023-03-07T03:33:27;2.80;99.10
4602;DHT22;2313;48.552;9.370;2023-03-07T03:36:04;2.80;99.30
4602;DHT22;2313;48.552;9.370;2023-03-07T03:38:30;2.80;99.30
4602;DHT22;2313;48.552;9.370;2023-03-07T03:40:57;2.80;99.40
4602;DHT22;2313;48.552;9.370;2023-03-07T03:43:23;2.80;99.40
4602;DHT22;2313;48.552;9.370;2023-03-07T03:45:56;2.80;99.20
4602;DHT22;2313;48.552;9.370;2023-03-07T03:48:22;2.80;98.90
4602;DHT22;2313;48.552;9.370;2023-03-07T03:50:48;2.80;98.90
4602;DHT22;2313;48.552;9.370;2023-03-07T03:53:13;2.90;99.10
4602;DHT22;2313;48.552;9.370;2023-03-07T03:55:39;2.90;98.70
4602;DHT22;2313;48.552;9.370;2023-03-07T03:58:05;2.90;98.50
4602;DHT22;2313;48.552;9.370;2023-03-07T04:00:30;2.80;98.30
4602;DHT22;2313;48.552;9.370;2023-03-07T04:02:56;2.90;98.40
4602;DHT22;2313;48.552;9.370;2023-03-07T04:05:22;2.90;98.10
4602;DHT22;2313;48.552;9.370;2023-03-07T04:07:48;2.80;98.20
4602;DHT22;2313;48.552;9.370;2023-03-07T04:10:13;2.90;98.10
4602;DHT22;2313;48.552;9.370;2023-03-07T04:12:39;2.80;97.70
4602;DHT22;2313;48.552;9.370;2023-03-07T04:15:06;2.90;97.80
4602;DHT22;2313;48.552;9.370;2023-03-07T04:17:32;2.90;97.80
4602;DHT22;2313;48.552;9.370;2023-03-07T04:19:58;2.90;97.60
4602;DHT22;2313;48.552;9.370;2023-03-07T04:22:24;2.90;97.30
4602;DHT22;2313;48.552;9.370;2023-03-07T04:24:49;2.90;97.40
4602;DHT22;2313;48.552;9.370;2023-03-07T04:27:15;2.90;97.50
4602;DHT22;2313;48.552;9.370;2023-03-07T04:29:42;3.00;97.50
4602;DHT22;2313;48.552;9.370;2023-03-07T04:32:07;3.00;96.80
4602;DHT22;2313;48.552;9.370;2023-03-07T04:34:33;3.10;97.20
4602;DHT22;2313;48.552;9.370;2023-03-07T04:36:58;3.10;96.70
4602;DHT22;2313;48.552;9.370;2023-03-07T04:39:24;3.00;97.00
4602;DHT22;2313;48.552;9.370;2023-03-07T04:41:50;3.00;96.80
4602;DHT22;2313;48.552;9.370;2023-03-07T04:44:15;3.00;96.50
4602;DHT22;2313;48.552;9.370;2023-03-07T04:46:41;3.10;96.60
4602;DHT22;2313;48.552;9.370;2023-03-07T04:49:07;3.00;96.60
4602;DHT22;2313;48.552;9.370;2023-03-07T04:51:33;3.10;96.90
4602;DHT22;2313;48.552;9.370;2023-03-07T04:53:59;3.10;96.60
4602;DHT22;2313;48.552;9.370;2023-03-07T04:56:25;3.10;96.60
4602;DHT22;2313;48.552;9.370;2023-03-07T04:58:51;3.10;97.00
4602;DHT22;2313;48.552;9.370;2023-03-07T05:01:16;3.10;97.00
4602;DHT22;2313;48.552;9.370;2023-03-07T05:03:43;3.10;97.20
4602;DHT22;2313;48.552;9.370;2023-03-07T05:06:13;3.20;97.00
4602;DHT22;2313;48.552;9.370;2023-03-07T05:08:39;3.20;96.80
4602;DHT22;2313;48.552;9.370;2023-03-07T05:11:05;3.10;96.60
4602;DHT22;2313;48.552;9.370;2023-03-07T05:13:31;3.10;96.50
4602;DHT22;2313;48.552;9.370;2023-03-07T05:15:57;3.20;96.60
4602;DHT22;2313;48.552;9.370;2023-03-07T05:18:24;3.20;96.70
4602;DHT22;2313;48.552;9.370;2023-03-07T05:20:50;3.20;97.00
4602;DHT22;2313;48.552;9.370;2023-03-07T05:23:16;3.20;96.90
4602;DHT22;2313;48.552;9.370;2023-03-07T05:25:42;3.20;96.80
4602;DHT22;2313;48.552;9.370;2023-03-07T05:28:08;3.20;96.80
4602;DHT22;2313;48.552;9.370;2023-03-07T05:30:33;3.20;96.90
4602;DHT22;2313;48.552;9.370;2023-03-07T05:32:59;3.20;96.80
4602;DHT22;2313;48.552;9.370;2023-03-07T05:35:25;3.20;97.40
4602;DHT22;2313;48.552;9.370;2023-03-07T05:37:51;3.30;97.10
4602;DHT22;2313;48.552;9.370;2023-03-07T05:40:17;3.30;97.00
4602;DHT22;2313;48.552;9.370;2023-03-07T05:42:43;3.30;97.00
4602;DHT22;2313;48.552;9.370;2023-03-07T05:45:09;3.30;96.80
4602;DHT22;2313;48.552;9.370;2023-03-07T05:47:36;3.30;97.20
4602;DHT22;2313;48.552;9.370;2023-03-07T05:50:01;3.30;96.80
4602;DHT22;2313;48.552;9.370;2023-03-07T05:52:27;3.30;97.00
4602;DHT22;2313;48.552;9.370;2023-03-07T05:54:53;3.30;97.00
4602;DHT22;2313;48.552;9.370;2023-03-07T05:57:20;3.30;97.10
4602;DHT22;2313;48.552;9.370;2023-03-07T05:59:46;3.30;96.90
4602;DHT22;2313;48.552;9.370;2023-03-07T06:02:12;3.30;96.70
4602;DHT22;2313;48.552;9.370;2023-03-07T06:04:38;3.40;97.10
4602;DHT22;2313;48.552;9.370;2023-03-07T06:07:03;3.40;97.20
4602;DHT22;2313;48.552;9.370;2023-03-07T06:09:29;3.40;97.00
4602;DHT22;2313;48.552;9.370;2023-03-07T06:11:54;3.30;97.20
4602;DHT22;2313;48.552;9.370;2023-03-07T06:14:20;3.30;97.00
4602;DHT22;2313;48.552;9.370;2023-03-07T06:16:46;3.30;97.30
4602;DHT22;2313;48.552;9.370;2023-03-07T06:19:11;3.40;97.50
4602;DHT22;2313;48.552;9.370;2023-03-07T06:21:37;3.40;96.90
4602;DHT22;2313;48.552;9.370;2023-03-07T06:24:03;3.40;97.00
4602;DHT22;2313;48.552;9.370;2023-03-07T06:26:30;3.40;97.60
4602;DHT22;2313;48.552;9.370;2023-03-07T06:28:55;3.50;97.40
4602;DHT22;2313;48.552;9.370;2023-03-07T06:31:21;3.50;97.30
4602;DHT22;2313;48.552;9.370;2023-03-07T06:33:47;3.50;96.80
4602;DHT22;2313;48.552;9.370;2023-03-07T06:36:15;3.50;96.80
4602;DHT22;2313;48.552;9.370;2023-03-07T06:38:40;3.50;96.60
4602;DHT22;2313;48.552;9.370;2023-03-07T06:41:07;3.60;97.30
4602;DHT22;2313;48.552;9.370;2023-03-07T06:43:33;3.70;97.20
4602;DHT22;2313;48.552;9.370;2023-03-07T06:45:59;3.60;97.20
4602;DHT22;2313;48.552;9.370;2023-03-07T06:48:24;3.70;96.90
4602;DHT22;2313;48.552;9.370;2023-03-07T06:50:50;3.70;96.80
4602;DHT22;2313;48.552;9.370;2023-03-07T06:53:16;3.70;96.80
4602;DHT22;2313;48.552;9.370;2023-03-07T06:55:41;3.80;97.00
4602;DHT22;2313;48.552;9.370;2023-03-07T06:58:07;3.90;97.00
4602;DHT22;2313;48.552;9.370;2023-03-07T07:00:33;4.00;97.10
4602;DHT22;2313;48.552;9.370;2023-03-07T07:02:58;4.10;96.50
4602;DHT22;2313;48.552;9.370;2023-03-07T07:05:24;4.10;96.00
4602;DHT22;2313;48.552;9.370;2023-03-07T07:07:49;4.10;95.80
4602;DHT22;2313;48.552;9.370;2023-03-07T07:10:15;4.10;95.90
4602;DHT22;2313;48.552;9.370;2023-03-07T07:12:41;4.10;95.50
4602;DHT22;2313;48.552;9.370;2023-03-07T07:15:07;4.20;95.50
4602;DHT22;2313;48.552;9.370;2023-03-07T07:17:34;4.20;95.60
4602;DHT22;2313;48.552;9.370;2023-03-07T07:20:01;4.40;94.90
4602;DHT22;2313;48.552;9.370;2023-03-07T07:22:26;4.30;94.40
4602;DHT22;2313;48.552;9.370;2023-03-07T07:24:52;4.30;94.70
4602;DHT22;2313;48.552;9.370;2023-03-07T07:27:18;4.20;94.00
4602;DHT22;2313;48.552;9.370;2023-03-07T07:29:44;4.20;94.30
4602;DHT22;2313;48.552;9.370;2023-03-07T07:32:09;4.30;94.70
4602;DHT22;2313;48.552;9.370;2023-03-07T07:34:35;4.40;95.10
4602;DHT22;2313;48.552;9.370;2023-03-07T07:37:00;4.40;94.20
4602;DHT22;2313;48.552;9.370;2023-03-07T07:39:26;4.40;94.10
4602;DHT22;2313;48.552;9.370;2023-03-07T07:41:51;4.30;94.10
4602;DHT22;2313;48.552;9.370;2023-03-07T07:44:17;4.30;94.40
4602;DHT22;2313;48.552;9.370;2023-03-07T07:46:43;4.30;93.30
4602;DHT22;2313;48.552;9.370;2023-03-07T07:49:08;4.40;94.50
4602;DHT22;2313;48.552;9.370;2023-03-07T07:51:34;4.50;94.30
4602;DHT22;2313;48.552;9.370;2023-03-07T07:54:00;4.60;93.80
4602;DHT22;2313;48.552;9.370;2023-03-07T07:56:25;4.60;92.70
4602;DHT22;2313;48.552;9.370;2023-03-07T07:58:51;4.60;92.40
4602;DHT22;2313;48.552;9.370;2023-03-07T08:01:18;4.70;93.10
4602;DHT22;2313;48.552;9.370;2023-03-07T08:03:45;4.90;93.00
4602;DHT22;2313;48.552;9.370;2023-03-07T08:06:11;5.10;93.20
4602;DHT22;2313;48.552;9.370;2023-03-07T08:08:36;5.10;92.20
4602;DHT22;2313;48.552;9.370;2023-03-07T08:11:02;5.10;92.20
4602;DHT22;2313;48.552;9.370;2023-03-07T08:13:28;5.20;92.40
4602;DHT22;2313;48.552;9.370;2023-03-07T08:15:54;5.30;92.10
4602;DHT22;2313;48.552;9.370;2023-03-07T08:18:19;5.30;91.70
4602;DHT22;2313;48.552;9.370;2023-03-07T08:20:45;5.40;91.20
4602;DHT22;2313;48.552;9.370;2023-03-07T08:23:11;5.50;91.60
4602;DHT22;2313;48.552;9.370;2023-03-07T08:25:36;5.60;91.70
4602;DHT22;2313;48.552;9.370;2023-03-07T08:28:02;5.70;90.80
4602;DHT22;2313;48.552;9.370;2023-03-07T08:30:31;6.00;90.50
4602;DHT22;2313;48.552;9.370;2023-03-07T08:32:57;6.00;90.10
4602;DHT22;2313;48.552;9.370;2023-03-07T08:35:25;5.90;88.40
4602;DHT22;2313;48.552;9.370;2023-03-07T08:37:55;6.10;89.40
4602;DHT22;2313;48.552;9.370;2023-03-07T08:40:22;6.20;89.10
4602;DHT22;2313;48.552;9.370;2023-03-07T08:42:49;6.00;87.40
4602;DHT22;2313;48.552;9.370;2023-03-07T08:45:15;5.80;89.30
4602;DHT22;2313;48.552;9.370;2023-03-07T08:47:40;5.90;89.60
4602;DHT22;2313;48.552;9.370;2023-03-07T08:50:07;5.90;86.30
4602;DHT22;2313;48.552;9.370;2023-03-07T08:52:32;6.00;88.00
4602;DHT22;2313;48.552;9.370;2023-03-07T08:54:58;6.00;87.90
4602;DHT22;2313;48.552;9.370;2023-03-07T08:57:24;6.10;87.70
4602;DHT22;2313;48.552;9.370;2023-03-07T08:59:49;5.90;86.50
4602;DHT22;2313;48.552;9.370;2023-03-07T09:02:15;5.80;85.90
4602;DHT22;2313;48.552;9.370;2023-03-07T09:04:41;5.90;88.00
4602;DHT22;2313;48.552;9.370;2023-03-07T09:07:07;5.90;87.20
4602;DHT22;2313;48.552;9.370;2023-03-07T09:09:33;5.80;87.00
4602;DHT22;2313;48.552;9.370;2023-03-07T09:11:58;5.80;86.20
4602;DHT22;2313;48.552;9.370;2023-03-07T09:14:24;5.90;87.50
4602;DHT22;2313;48.552;9.370;2023-03-07T09:16:49;5.90;86.00
4602;DHT22;2313;48.552;9.370;2023-03-07T09:19:15;6.00;87.10
4602;DHT22;2313;48.552;9.370;2023-03-07T09:21:41;6.10;87.30
4602;DHT22;2313;48.552;9.370;2023-03-07T09:24:06;6.00;85.70
4602;DHT22;2313;48.552;9.370;2023-03-07T09:26:32;6.00;85.40
4602;DHT22;2313;48.552;9.370;2023-03-07T09:28:58;6.00;86.50
4602;DHT22;2313;48.552;9.370;2023-03-07T09:31:24;5.90;86.20
4602;DHT22;2313;48.552;9.370;2023-03-07T09:33:51;5.80;84.50
4602;DHT22;2313;48.552;9.370;2023-03-07T09:36:17;5.80;84.20
4602;DHT22;2313;48.552;9.370;2023-03-07T09:38:45;5.90;86.30
4602;DHT22;2313;48.552;9.370;2023-03-07T09:41:54;5.90;84.10
4602;DHT22;2313;48.552;9.370;2023-03-07T09:44:41;6.10;86.40
4602;DHT22;2313;48.552;9.370;2023-03-07T09:49:48;6.10;82.90
4602;DHT22;2313;48.552;9.370;2023-03-07T09:52:33;6.10;83.70
4602;DHT22;2313;48.552;9.370;2023-03-07T09:55:08;6.10;83.20
4602;DHT22;2313;48.552;9.370;2023-03-07T09:57:49;6.00;83.00
4602;DHT22;2313;48.552;9.370;2023-03-07T10:00:40;6.00;83.30
4602;DHT22;2313;48.552;9.370;2023-03-07T10:05:49;5.80;84.30
4602;DHT22;2313;48.552;9.370;2023-03-07T10:08:19;5.80;84.80
4602;DHT22;2313;48.552;9.370;2023-03-07T10:10:57;5.80;85.90
4602;DHT22;2313;48.552;9.370;2023-03-07T10:16:23;5.60;82.50
4602;DHT22;2313;48.552;9.370;2023-03-07T10:21:57;5.40;83.90
4602;DHT22;2313;48.552;9.370;2023-03-07T10:24:37;5.40;85.10
4602;DHT22;2313;48.552;9.370;2023-03-07T10:27:09;5.40;86.10
4602;DHT22;2313;48.552;9.370;2023-03-07T10:29:45;5.50;85.80
4602;DHT22;2313;48.552;9.370;2023-03-07T10:40:18;5.70;85.40
4602;DHT22;2313;48.552;9.370;2023-03-07T10:42:46;5.70;85.80
4602;DHT22;2313;48.552;9.370;2023-03-07T10:45:13;5.40;83.00
4602;DHT22;2313;48.552;9.370;2023-03-07T10:47:39;5.60;85.00
4602;DHT22;2313;48.552;9.370;2023-03-07T10:50:27;5.70;84.40
4602;DHT22;2313;48.552;9.370;2023-03-07T10:52:56;5.80;83.10
4602;DHT22;2313;48.552;9.370;2023-03-07T10:55:40;5.80;83.00
4602;DHT22;2313;48.552;9.370;2023-03-07T11:01:00;5.80;81.10
4602;DHT22;2313;48.552;9.370;2023-03-07T11:05:55;5.70;78.80
4602;DHT22;2313;48.552;9.370;2023-03-07T11:10:56;5.70;78.80
4602;DHT22;2313;48.552;9.370;2023-03-07T11:13:23;5.70;78.60
4602;DHT22;2313;48.552;9.370;2023-03-07T11:15:49;6.00;78.60
4602;DHT22;2313;48.552;9.370;2023-03-07T11:18:44;6.10;77.40
4602;DHT22;2313;48.552;9.370;2023-03-07T11:21:33;6.40;78.40
4602;DHT22;2313;48.552;9.370;2023-03-07T11:24:04;6.60;78.20
4602;DHT22;2313;48.552;9.370;2023-03-07T11:26:38;6.70;77.80
4602;DHT22;2313;48.552;9.370;2023-03-07T11:29:12;6.80;76.60
4602;DHT22;2313;48.552;9.370;2023-03-07T11:32:12;6.90;77.80
4602;DHT22;2313;48.552;9.370;2023-03-07T11:35:11;7.00;76.50
4602;DHT22;2313;48.552;9.370;2023-03-07T11:37:49;6.80;75.80
4602;DHT22;2313;48.552;9.370;2023-03-07T11:54:30;7.20;74.30
4602;DHT22;2313;48.552;9.370;2023-03-07T11:57:29;7.10;74.40
4602;DHT22;2313;48.552;9.370;2023-03-07T12:03:20;7.10;72.30
4602;DHT22;2313;48.552;9.370;2023-03-07T12:11:49;6.90;74.80
4602;DHT22;2313;48.552;9.370;2023-03-07T12:14:29;6.90;74.70
4602;DHT22;2313;48.552;9.370;2023-03-07T12:22:26;6.60;73.80
4602;DHT22;2313;48.552;9.370;2023-03-07T12:33:17;6.60;74.50
4602;DHT22;2313;48.552;9.370;2023-03-07T12:35:48;6.60;74.90
4602;DHT22;2313;48.552;9.370;2023-03-07T12:38:58;6.80;74.60
4602;DHT22;2313;48.552;9.370;2023-03-07T12:43:57;7.40;73.20
4602;DHT22;2313;48.552;9.370;2023-03-07T12:51:48;8.00;68.60
4602;DHT22;2313;48.552;9.370;2023-03-07T12:54:38;8.70;71.30
4602;DHT22;2313;48.552;9.370;2023-03-07T12:57:26;8.90;67.60
4602;DHT22;2313;48.552;9.370;2023-03-07T12:59:57;8.50;67.80
4602;DHT22;2313;48.552;9.370;2023-03-07T13:02:28;8.40;67.40
4602;DHT22;2313;48.552;9.370;2023-03-07T13:04:54;8.40;67.60
4602;DHT22;2313;48.552;9.370;2023-03-07T13:09:53;8.30;66.20
4602;DHT22;2313;48.552;9.370;2023-03-07T13:12:21;8.20;65.70
4602;DHT22;2313;48.552;9.370;2023-03-07T13:15:00;8.00;66.00
4602;DHT22;2313;48.552;9.370;2023-03-07T13:19:56;8.30;65.90
4602;DHT22;2313;48.552;9.370;2023-03-07T13:24:55;8.80;64.70
4602;DHT22;2313;48.552;9.370;2023-03-07T13:27:45;8.70;61.80
4602;DHT22;2313;48.552;9.370;2023-03-07T13:49:03;7.60;66.70
4602;DHT22;2313;48.552;9.370;2023-03-07T13:51:29;7.60;66.30
4602;DHT22;2313;48.552;9.370;2023-03-07T13:54:02;7.50;65.30
4602;DHT22;2313;48.552;9.370;2023-03-07T13:56:34;7.90;68.20
4602;DHT22;2313;48.552;9.370;2023-03-07T14:04:25;8.60;65.10
4602;DHT22;2313;48.552;9.370;2023-03-07T14:07:02;8.60;66.10
4602;DHT22;2313;48.552;9.370;2023-03-07T14:21:11;8.30;63.00
4602;DHT22;2313;48.552;9.370;2023-03-07T14:26:31;8.40;62.10
4602;DHT22;2313;48.552;9.370;2023-03-07T14:29:19;8.50;62.70
4602;DHT22;2313;48.552;9.370;2023-03-07T14:31:45;8.80;64.10
4602;DHT22;2313;48.552;9.370;2023-03-07T14:36:42;8.60;61.60
4602;DHT22;2313;48.552;9.370;2023-03-07T14:39:11;8.50;61.10
4602;DHT22;2313;48.552;9.370;2023-03-07T14:41:57;8.40;60.80
4602;DHT22;2313;48.552;9.370;2023-03-07T14:44:37;8.20;61.70
4602;DHT22;2313;48.552;9.370;2023-03-07T14:52:44;7.60;61.90
4602;DHT22;2313;48.552;9.370;2023-03-07T14:55:21;7.50;63.10
4602;DHT22;2313;48.552;9.370;2023-03-07T14:57:50;7.40;63.10
4602;DHT22;2313;48.552;9.370;2023-03-07T15:00:23;7.40;64.10
4602;DHT22;2313;48.552;9.370;2023-03-07T15:03:01;7.40;63.80
4602;DHT22;2313;48.552;9.370;2023-03-07T15:05:34;7.30;63.20
4602;DHT22;2313;48.552;9.370;2023-03-07T15:08:00;7.20;64.00
4602;DHT22;2313;48.552;9.370;2023-03-07T15:10:33;7.20;65.00
4602;DHT22;2313;48.552;9.370;2023-03-07T15:13:00;7.20;64.90
4602;DHT22;2313;48.552;9.370;2023-03-07T15:15:33;7.20;64.80
4602;DHT22;2313;48.552;9.370;2023-03-07T15:18:06;7.30;64.40
4602;DHT22;2313;48.552;9.370;2023-03-07T15:20:36;7.40;64.40
4602;DHT22;2313;48.552;9.370;2023-03-07T15:23:04;7.50;64.90
4602;DHT22;2313;48.552;9.370;2023-03-07T15:25:32;7.50;63.70
4602;DHT22;2313;48.552;9.370;2023-03-07T15:28:05;7.60;64.30
4602;DHT22;2313;48.552;9.370;2023-03-07T15:30:36;7.60;63.90
4602;DHT22;2313;48.552;9.370;2023-03-07T15:33:11;7.70;63.80
4602;DHT22;2313;48.552;9.370;2023-03-07T15:35:38;7.60;63.60
4602;DHT22;2313;48.552;9.370;2023-03-07T15:40:39;7.40;64.10
4602;DHT22;2313;48.552;9.370;2023-03-07T15:46:04;7.30;64.40
4602;DHT22;2313;48.552;9.370;2023-03-07T15:48:42;7.10;64.30
4602;DHT22;2313;48.552;9.370;2023-03-07T15:51:14;7.10;65.30
4602;DHT22;2313;48.552;9.370;2023-03-07T15:53:41;7.00;65.30
4602;DHT22;2313;48.552;9.370;2023-03-07T15:56:27;6.90;65.60
4602;DHT22;2313;48.552;9.370;2023-03-07T15:59:00;6.80;66.00
4602;DHT22;2313;48.552;9.370;2023-03-07T16:01:27;6.80;66.30
4602;DHT22;2313;48.552;9.370;2023-03-07T16:03:56;6.80;65.90
4602;DHT22;2313;48.552;9.370;2023-03-07T16:06:43;6.70;66.40
4602;DHT22;2313;48.552;9.370;2023-03-07T16:09:14;6.70;66.00
4602;DHT22;2313;48.552;9.370;2023-03-07T16:11:40;6.70;66.60
4602;DHT22;2313;48.552;9.370;2023-03-07T16:14:47;6.70;67.30
4602;DHT22;2313;48.552;9.370;2023-03-07T16:17:20;6.80;66.70
4602;DHT22;2313;48.552;9.370;2023-03-07T16:19:47;6.70;66.40
4602;DHT22;2313;48.552;9.370;2023-03-07T16:22:17;6.70;67.00
4602;DHT22;2313;48.552;9.370;2023-03-07T16:24:43;6.80;66.70
4602;DHT22;2313;48.552;9.370;2023-03-07T16:27:17;6.70;66.80
4602;DHT22;2313;48.552;9.370;2023-03-07T16:29:44;6.60;67.10
4602;DHT22;2313;48.552;9.370;2023-03-07T16:32:13;6.70;67.60
4602;DHT22;2313;48.552;9.370;2023-03-07T16:34:39;6.80;67.50
4602;DHT22;2313;48.552;9.370;2023-03-07T16:37:05;6.80;67.40
4602;DHT22;2313;48.552;9.370;2023-03-07T16:39:30;6.80;67.40
4602;DHT22;2313;48.552;9.370;2023-03-07T16:41:56;6.80;67.20
4602;DHT22;2313;48.552;9.370;2023-03-07T16:44:21;6.70;67.20
4602;DHT22;2313;48.552;9.370;2023-03-07T16:47:12;6.70;67.70
4602;DHT22;2313;48.552;9.370;2023-03-07T16:49:38;6.60;67.20
4602;DHT22;2313;48.552;9.370;2023-03-07T16:52:04;6.60;68.50
4602;DHT22;2313;48.552;9.370;2023-03-07T16:54:29;6.60;68.20
4602;DHT22;2313;48.552;9.370;2023-03-07T16:56:55;6.50;69.20
4602;DHT22;2313;48.552;9.370;2023-03-07T16:59:23;6.50;69.20
4602;DHT22;2313;48.552;9.370;2023-03-07T17:01:53;6.50;69.30
4602;DHT22;2313;48.552;9.370;2023-03-07T17:04:19;6.40;69.00
4602;DHT22;2313;48.552;9.370;2023-03-07T17:06:45;6.30;69.30
4602;DHT22;2313;48.552;9.370;2023-03-07T17:09:12;6.20;69.30
4602;DHT22;2313;48.552;9.370;2023-03-07T17:11:42;6.10;70.00
4602;DHT22;2313;48.552;9.370;2023-03-07T17:14:08;6.00;70.50
4602;DHT22;2313;48.552;9.370;2023-03-07T17:16:39;6.00;70.90
4602;DHT22;2313;48.552;9.370;2023-03-07T17:19:05;5.90;72.00
4602;DHT22;2313;48.552;9.370;2023-03-07T17:21:32;5.90;71.60
4602;DHT22;2313;48.552;9.370;2023-03-07T17:23:58;5.80;72.10
4602;DHT22;2313;48.552;9.370;2023-03-07T17:26:38;5.80;72.50
4602;DHT22;2313;48.552;9.370;2023-03-07T17:29:12;5.80;72.90
4602;DHT22;2313;48.552;9.370;2023-03-07T17:31:42;5.80;73.10
4602;DHT22;2313;48.552;9.370;2023-03-07T17:34:22;5.70;72.80
4602;DHT22;2313;48.552;9.370;2023-03-07T17:36:48;5.60;73.40
4602;DHT22;2313;48.552;9.370;2023-03-07T17:39:14;5.60;73.40
4602;DHT22;2313;48.552;9.370;2023-03-07T17:41:39;5.60;73.60
4602;DHT22;2313;48.552;9.370;2023-03-07T17:44:05;5.50;73.50
4602;DHT22;2313;48.552;9.370;2023-03-07T17:46:31;5.50;73.40
4602;DHT22;2313;48.552;9.370;2023-03-07T17:48:56;5.40;73.70
4602;DHT22;2313;48.552;9.370;2023-03-07T17:51:22;5.30;73.70
4602;DHT22;2313;48.552;9.370;2023-03-07T17:53:47;5.40;74.80
4602;DHT22;2313;48.552;9.370;2023-03-07T17:56:13;5.30;74.80
4602;DHT22;2313;48.552;9.370;2023-03-07T17:58:38;5.30;74.80
4602;DHT22;2313;48.552;9.370;2023-03-07T18:01:05;5.30;75.30
4602;DHT22;2313;48.552;9.370;2023-03-07T18:03:36;5.40;75.60
4602;DHT22;2313;48.552;9.370;2023-03-07T18:06:03;5.40;75.20
4602;DHT22;2313;48.552;9.370;2023-03-07T18:08:29;5.40;74.80
4602;DHT22;2313;48.552;9.370;2023-03-07T18:11:05;5.40;75.00
4602;DHT22;2313;48.552;9.370;2023-03-07T18:13:31;5.40;74.10
4602;DHT22;2313;48.552;9.370;2023-03-07T18:15:58;5.40;75.10
4602;DHT22;2313;48.552;9.370;2023-03-07T18:18:24;5.30;75.40
4602;DHT22;2313;48.552;9.370;2023-03-07T18:21:00;5.20;75.20
4602;DHT22;2313;48.552;9.370;2023-03-07T18:23:26;5.20;74.80
4602;DHT22;2313;48.552;9.370;2023-03-07T18:25:59;5.20;75.50
4602;DHT22;2313;48.552;9.370;2023-03-07T18:28:25;5.10;76.00
4602;DHT22;2313;48.552;9.370;2023-03-07T18:30:58;5.10;75.90
4602;DHT22;2313;48.552;9.370;2023-03-07T18:33:25;5.00;76.40
4602;DHT22;2313;48.552;9.370;2023-03-07T18:35:51;5.00;77.70
4602;DHT22;2313;48.552;9.370;2023-03-07T18:38:16;5.00;77.40
4602;DHT22;2313;48.552;9.370;2023-03-07T18:40:42;5.00;78.00
4602;DHT22;2313;48.552;9.370;2023-03-07T18:43:07;5.00;77.50
4602;DHT22;2313;48.552;9.370;2023-03-07T18:45:33;5.00;78.30
4602;DHT22;2313;48.552;9.370;2023-03-07T18:47:58;5.00;77.50